Fuget, Kentucky
Current Conditions -  °F | °C
As of 7:55 PM on Monday 24 Nov 2014 (Local Time) from KSJS Reporting Station
Clear Clear  
Wind Chill: 57°   Ceiling: Unl
Heat Index: 57°   Visibility: 10mi
Dew Point: 38°   Wind: 12mph
Humidity: 49%   Direction: 300°WNW
Pressure: 29.84"   Gusts: 17mph
Location:  37.9467°N, 82.8859°W
Report Text: KSJS 250055Z AUTO 30010G15KT 10SM CLR 14/03 A2984 RMK AO2 T01400034
Loading
Personal Weather Stations






























Interactive Weather Map New forecast layout! Learn more

10-Day Weather Forecast

Advertisements
Track Severe Weather on mobile